sensor_id;sensor_type;location;lat;lon;timestamp;pressure;altitude;pressure_sealevel;temperature;humidity
7441;BME280;29616;51.950;8.572;2023-06-10T00:00:35;100023.47;;;20.19;100.00
7441;BME280;29616;51.950;8.572;2023-06-10T00:03:04;100019.22;;;20.10;100.00
7441;BME280;29616;51.950;8.572;2023-06-10T00:05:33;100032.66;;;20.07;100.00
7441;BME280;29616;51.950;8.572;2023-06-10T00:08:05;100029.28;;;19.98;100.00
7441;BME280;29616;51.950;8.572;2023-06-10T00:10:37;100026.72;;;20.03;100.00
7441;BME280;29616;51.950;8.572;2023-06-10T00:13:07;100005.81;;;19.87;100.00
7441;BME280;29616;51.950;8.572;2023-06-10T00:15:39;100011.38;;;19.81;100.00
7441;BME280;29616;51.950;8.572;2023-06-10T00:18:09;100018.41;;;19.70;100.00
7441;BME280;29616;51.950;8.572;2023-06-10T00:20:41;100003.28;;;19.60;100.00
7441;BME280;29616;51.950;8.572;2023-06-10T00:23:09;100010.53;;;19.74;100.00
7441;BME280;29616;51.950;8.572;2023-06-10T00:25:39;100003.28;;;19.60;100.00
7441;BME280;29616;51.950;8.572;2023-06-10T00:28:09;100011.16;;;19.63;100.00
7441;BME280;29616;51.950;8.572;2023-06-10T00:30:40;100001.34;;;19.47;100.00
7441;BME280;29616;51.950;8.572;2023-06-10T00:33:10;100009.88;;;19.52;100.00
7441;BME280;29616;51.950;8.572;2023-06-10T00:35:40;100009.88;;;19.46;100.00
7441;BME280;29616;51.950;8.572;2023-06-10T00:38:10;100015.19;;;19.41;100.00
7441;BME280;29616;51.950;8.572;2023-06-10T00:40:40;100010.50;;;19.34;100.00
7441;BME280;29616;51.950;8.572;2023-06-10T00:43:08;100008.31;;;19.10;100.00
7441;BME280;29616;51.950;8.572;2023-06-10T00:45:39;100012.13;;;18.96;100.00
7441;BME280;29616;51.950;8.572;2023-06-10T00:48:09;100010.81;;;18.86;100.00
7441;BME280;29616;51.950;8.572;2023-06-10T00:50:41;100010.75;;;18.79;100.00
7441;BME280;29616;51.950;8.572;2023-06-10T00:53:09;100002.06;;;18.82;100.00
7441;BME280;29616;51.950;8.572;2023-06-10T00:55:41;100013.53;;;18.72;100.00
7441;BME280;29616;51.950;8.572;2023-06-10T00:58:10;100008.56;;;18.55;100.00
7441;BME280;29616;51.950;8.572;2023-06-10T01:00:41;100008.91;;;18.45;100.00
7441;BME280;29616;51.950;8.572;2023-06-10T01:03:11;100020.69;;;18.54;100.00
7441;BME280;29616;51.950;8.572;2023-06-10T01:05:41;100015.78;;;18.49;100.00
7441;BME280;29616;51.950;8.572;2023-06-10T01:08:19;100012.38;;;18.54;100.00
7441;BME280;29616;51.950;8.572;2023-06-10T01:10:57;100015.06;;;18.41;100.00
7441;BME280;29616;51.950;8.572;2023-06-10T01:13:28;100027.28;;;18.53;100.00
7441;BME280;29616;51.950;8.572;2023-06-10T01:15:59;100026.78;;;18.43;100.00
7441;BME280;29616;51.950;8.572;2023-06-10T01:18:30;100020.25;;;18.16;100.00
7441;BME280;29616;51.950;8.572;2023-06-10T01:20:59;100031.75;;;18.20;100.00
7441;BME280;29616;51.950;8.572;2023-06-10T01:23:30;100024.34;;;18.27;100.00
7441;BME280;29616;51.950;8.572;2023-06-10T01:26:03;100023.47;;;18.54;100.00
7441;BME280;29616;51.950;8.572;2023-06-10T01:28:40;100021.16;;;18.64;100.00
7441;BME280;29616;51.950;8.572;2023-06-10T01:31:18;100015.50;;;18.44;100.00
7441;BME280;29616;51.950;8.572;2023-06-10T01:33:53;100032.31;;;18.43;100.00
7441;BME280;29616;51.950;8.572;2023-06-10T01:36:24;100027.75;;;18.29;100.00
7441;BME280;29616;51.950;8.572;2023-06-10T01:38:55;100029.88;;;18.27;100.00
7441;BME280;29616;51.950;8.572;2023-06-10T01:41:25;100026.56;;;18.10;100.00
7441;BME280;29616;51.950;8.572;2023-06-10T01:43:55;100026.56;;;18.10;100.00
7441;BME280;29616;51.950;8.572;2023-06-10T01:46:23;100018.66;;;18.00;100.00
7441;BME280;29616;51.950;8.572;2023-06-10T01:48:53;100023.31;;;18.00;100.00
7441;BME280;29616;51.950;8.572;2023-06-10T01:51:21;100027.97;;;17.93;100.00
7441;BME280;29616;51.950;8.572;2023-06-10T01:53:51;100035.63;;;17.91;100.00
7441;BME280;29616;51.950;8.572;2023-06-10T01:56:21;100036.34;;;17.78;100.00
7441;BME280;29616;51.950;8.572;2023-06-10T01:58:51;100038.09;;;17.58;100.00
7441;BME280;29616;51.950;8.572;2023-06-10T02:01:22;100043.09;;;17.48;100.00
7441;BME280;29616;51.950;8.572;2023-06-10T02:03:51;100041.50;;;17.39;100.00
7441;BME280;29616;51.950;8.572;2023-06-10T02:06:20;100040.06;;;17.64;100.00
7441;BME280;29616;51.950;8.572;2023-06-10T02:08:49;100040.88;;;17.86;100.00
7441;BME280;29616;51.950;8.572;2023-06-10T02:11:20;100035.69;;;18.04;100.00
7441;BME280;29616;51.950;8.572;2023-06-10T02:13:51;100034.69;;;18.11;100.00
7441;BME280;29616;51.950;8.572;2023-06-10T02:16:21;100039.56;;;18.09;100.00
7441;BME280;29616;51.950;8.572;2023-06-10T02:18:51;100046.94;;;18.02;100.00
7441;BME280;29616;51.950;8.572;2023-06-10T02:21:21;100037.38;;;17.98;100.00
7441;BME280;29616;51.950;8.572;2023-06-10T02:23:49;100046.47;;;17.92;100.00
7441;BME280;29616;51.950;8.572;2023-06-10T02:26:21;100054.25;;;17.82;100.00
7441;BME280;29616;51.950;8.572;2023-06-10T02:28:51;100051.88;;;17.79;100.00
7441;BME280;29616;51.950;8.572;2023-06-10T02:31:19;100053.75;;;17.72;100.00
7441;BME280;29616;51.950;8.572;2023-06-10T02:33:48;100060.56;;;17.76;100.00
7441;BME280;29616;51.950;8.572;2023-06-10T02:36:16;100057.44;;;17.86;100.00
7441;BME280;29616;51.950;8.572;2023-06-10T02:38:45;100057.91;;;17.89;100.00
7441;BME280;29616;51.950;8.572;2023-06-10T02:41:15;100056.81;;;17.84;100.00
7441;BME280;29616;51.950;8.572;2023-06-10T02:43:45;100052.69;;;17.73;100.00
7441;BME280;29616;51.950;8.572;2023-06-10T02:46:16;100056.94;;;17.76;100.00
7441;BME280;29616;51.950;8.572;2023-06-10T02:48:46;100052.63;;;17.67;100.00
7441;BME280;29616;51.950;8.572;2023-06-10T02:51:20;100056.84;;;17.63;100.00
7441;BME280;29616;51.950;8.572;2023-06-10T02:53:55;100057.06;;;17.61;100.00
7441;BME280;29616;51.950;8.572;2023-06-10T02:56:26;100062.84;;;17.66;100.00
7441;BME280;29616;51.950;8.572;2023-06-10T02:59:00;100058.34;;;17.65;100.00
7441;BME280;29616;51.950;8.572;2023-06-10T03:01:31;100058.75;;;17.62;100.00
7441;BME280;29616;51.950;8.572;2023-06-10T03:04:05;100057.69;;;17.63;100.00
7441;BME280;29616;51.950;8.572;2023-06-10T03:06:34;100057.22;;;17.60;100.00
7441;BME280;29616;51.950;8.572;2023-06-10T03:09:19;100062.13;;;17.58;100.00
7441;BME280;29616;51.950;8.572;2023-06-10T03:11:52;100048.91;;;17.53;100.00
7441;BME280;29616;51.950;8.572;2023-06-10T03:14:25;100056.84;;;17.63;100.00
7441;BME280;29616;51.950;8.572;2023-06-10T03:16:54;100061.91;;;17.59;100.00
7441;BME280;29616;51.950;8.572;2023-06-10T03:19:24;100065.19;;;17.48;100.00
7441;BME280;29616;51.950;8.572;2023-06-10T03:22:09;100072.00;;;17.52;100.00
7441;BME280;29616;51.950;8.572;2023-06-10T03:25:04;100064.50;;;17.46;100.00
7441;BME280;29616;51.950;8.572;2023-06-10T03:27:34;100072.34;;;17.42;100.00
7441;BME280;29616;51.950;8.572;2023-06-10T03:30:10;100069.00;;;17.47;100.00
7441;BME280;29616;51.950;8.572;2023-06-10T03:32:40;100074.41;;;17.55;100.00
7441;BME280;29616;51.950;8.572;2023-06-10T03:35:11;100073.41;;;17.63;100.00
7441;BME280;29616;51.950;8.572;2023-06-10T03:37:42;100078.09;;;17.62;100.00
7441;BME280;29616;51.950;8.572;2023-06-10T03:40:12;100071.59;;;17.70;100.00
7441;BME280;29616;51.950;8.572;2023-06-10T03:42:45;100065.47;;;17.74;100.00
7441;BME280;29616;51.950;8.572;2023-06-10T03:45:17;100071.38;;;17.71;100.00
7441;BME280;29616;51.950;8.572;2023-06-10T03:47:46;100075.78;;;17.66;100.00
7441;BME280;29616;51.950;8.572;2023-06-10T03:50:20;100076.41;;;17.61;100.00
7441;BME280;29616;51.950;8.572;2023-06-10T03:52:51;100070.78;;;17.54;100.00
7441;BME280;29616;51.950;8.572;2023-06-10T03:55:25;100070.72;;;17.48;100.00
7441;BME280;29616;51.950;8.572;2023-06-10T03:57:54;100067.97;;;17.48;100.00
7441;BME280;29616;51.950;8.572;2023-06-10T04:00:26;100065.19;;;17.48;100.00
7441;BME280;29616;51.950;8.572;2023-06-10T04:02:55;100060.50;;;17.48;100.00
7441;BME280;29616;51.950;8.572;2023-06-10T04:05:38;100048.88;;;17.32;100.00
7441;BME280;29616;51.950;8.572;2023-06-10T04:08:08;100066.69;;;17.50;100.00
7441;BME280;29616;51.950;8.572;2023-06-10T04:10:37;100060.69;;;17.62;100.00
7441;BME280;29616;51.950;8.572;2023-06-10T04:13:07;100063.22;;;17.63;100.00
7441;BME280;29616;51.950;8.572;2023-06-10T04:15:46;100067.59;;;17.79;100.00
7441;BME280;29616;51.950;8.572;2023-06-10T04:18:17;100066.31;;;18.02;100.00
7441;BME280;29616;51.950;8.572;2023-06-10T04:20:46;100057.28;;;18.22;100.00
7441;BME280;29616;51.950;8.572;2023-06-10T04:23:15;100058.59;;;18.26;100.00
7441;BME280;29616;51.950;8.572;2023-06-10T04:25:45;100064.22;;;18.39;100.00
7441;BME280;29616;51.950;8.572;2023-06-10T04:28:18;100060.84;;;18.43;100.00
7441;BME280;29616;51.950;8.572;2023-06-10T04:30:49;100064.06;;;18.47;100.00
7441;BME280;29616;51.950;8.572;2023-06-10T04:33:20;100071.78;;;18.58;100.00
7441;BME280;29616;51.950;8.572;2023-06-10T04:35:48;100075.28;;;18.73;100.00
7441;BME280;29616;51.950;8.572;2023-06-10T04:38:21;100075.69;;;18.70;100.00
7441;BME280;29616;51.950;8.572;2023-06-10T04:40:51;100076.97;;;18.74;100.00
7441;BME280;29616;51.950;8.572;2023-06-10T04:43:22;100072.81;;;18.91;100.00
7441;BME280;29616;51.950;8.572;2023-06-10T04:45:52;100068.16;;;19.05;100.00
7441;BME280;29616;51.950;8.572;2023-06-10T04:48:22;100068.13;;;18.98;100.00
7441;BME280;29616;51.950;8.572;2023-06-10T04:50:53;100069.44;;;19.02;100.00
7441;BME280;29616;51.950;8.572;2023-06-10T04:53:22;100076.06;;;19.08;100.00
7441;BME280;29616;51.950;8.572;2023-06-10T04:55:52;100082.66;;;19.07;100.00
7441;BME280;29616;51.950;8.572;2023-06-10T04:58:20;100091.22;;;19.18;100.00
7441;BME280;29616;51.950;8.572;2023-06-10T05:00:48;100072.47;;;19.20;100.00
7441;BME280;29616;51.950;8.572;2023-06-10T05:03:18;100091.66;;;19.35;100.00
7441;BME280;29616;51.950;8.572;2023-06-10T05:05:47;100085.13;;;19.43;100.00
7441;BME280;29616;51.950;8.572;2023-06-10T05:08:16;100087.91;;;19.62;100.00
7441;BME280;29616;51.950;8.572;2023-06-10T05:10:48;100085.38;;;19.67;100.00
7441;BME280;29616;51.950;8.572;2023-06-10T05:13:17;100096.69;;;19.92;100.00
7441;BME280;29616;51.950;8.572;2023-06-10T05:15:48;100082.19;;;20.16;100.00
7441;BME280;29616;51.950;8.572;2023-06-10T05:18:18;100090.25;;;20.50;100.00
7441;BME280;29616;51.950;8.572;2023-06-10T05:20:49;100097.06;;;20.61;100.00
7441;BME280;29616;51.950;8.572;2023-06-10T05:23:17;100095.47;;;20.91;100.00
7441;BME280;29616;51.950;8.572;2023-06-10T05:25:47;100086.22;;;21.04;100.00
7441;BME280;29616;51.950;8.572;2023-06-10T05:28:15;100092.78;;;21.23;100.00
7441;BME280;29616;51.950;8.572;2023-06-10T05:30:45;100101.03;;;21.42;100.00
7441;BME280;29616;51.950;8.572;2023-06-10T05:33:15;100095.72;;;21.65;100.00
7441;BME280;29616;51.950;8.572;2023-06-10T05:35:46;100092.09;;;21.96;100.00
7441;BME280;29616;51.950;8.572;2023-06-10T05:38:15;100090.66;;;22.12;100.00
7441;BME280;29616;51.950;8.572;2023-06-10T05:40:43;100095.50;;;22.23;100.00
7441;BME280;29616;51.950;8.572;2023-06-10T05:43:11;100086.56;;;22.39;100.00
7441;BME280;29616;51.950;8.572;2023-06-10T05:45:41;100091.56;;;22.30;100.00
7441;BME280;29616;51.950;8.572;2023-06-10T05:48:12;100090.91;;;22.35;100.00
7441;BME280;29616;51.950;8.572;2023-06-10T05:50:41;100085.31;;;22.35;100.00
7441;BME280;29616;51.950;8.572;2023-06-10T05:53:16;100090.94;;;22.71;100.00
7441;BME280;29616;51.950;8.572;2023-06-10T05:55:46;100067.31;;;22.56;100.00
7441;BME280;29616;51.950;8.572;2023-06-10T05:58:16;100081.44;;;22.79;100.00
7441;BME280;29616;51.950;8.572;2023-06-10T06:00:45;100077.13;;;23.13;100.00
7441;BME280;29616;51.950;8.572;2023-06-10T06:03:17;100084.25;;;23.27;100.00
7441;BME280;29616;51.950;8.572;2023-06-10T06:05:46;100081.72;;;23.55;100.00
7441;BME280;29616;51.950;8.572;2023-06-10T06:08:16;100075.94;;;23.68;100.00
7441;BME280;29616;51.950;8.572;2023-06-10T06:10:46;100083.75;;;23.89;100.00
7441;BME280;29616;51.950;8.572;2023-06-10T06:13:15;100087.59;;;24.41;97.75
7441;BME280;29616;51.950;8.572;2023-06-10T06:15:45;100089.66;;;24.81;96.91
7441;BME280;29616;51.950;8.572;2023-06-10T06:18:14;100080.66;;;24.90;95.19
7441;BME280;29616;51.950;8.572;2023-06-10T06:20:43;100074.97;;;24.85;96.67
7441;BME280;29616;51.950;8.572;2023-06-10T06:23:12;100084.16;;;24.97;92.27
7441;BME280;29616;51.950;8.572;2023-06-10T06:25:42;100090.09;;;25.41;87.50
7441;BME280;29616;51.950;8.572;2023-06-10T06:28:11;100082.97;;;25.61;85.16
7441;BME280;29616;51.950;8.572;2023-06-10T06:30:39;100091.81;;;26.15;82.68
7441;BME280;29616;51.950;8.572;2023-06-10T06:33:07;100083.41;;;26.15;78.50
7441;BME280;29616;51.950;8.572;2023-06-10T06:35:37;100092.38;;;26.17;76.57
7441;BME280;29616;51.950;8.572;2023-06-10T06:38:06;100097.84;;;26.40;76.79
7441;BME280;29616;51.950;8.572;2023-06-10T06:40:35;100089.47;;;26.62;74.23
7441;BME280;29616;51.950;8.572;2023-06-10T06:43:06;100088.00;;;26.76;72.34
7441;BME280;29616;51.950;8.572;2023-06-10T06:46:02;100095.69;;;26.30;73.76
7441;BME280;29616;51.950;8.572;2023-06-10T06:48:33;100086.56;;;26.90;70.80
7441;BME280;29616;51.950;8.572;2023-06-10T06:51:01;100089.63;;;27.10;71.73
7441;BME280;29616;51.950;8.572;2023-06-10T06:53:30;100092.28;;;27.22;70.23
7441;BME280;29616;51.950;8.572;2023-06-10T06:56:01;100094.00;;;27.01;68.83
7441;BME280;29616;51.950;8.572;2023-06-10T06:58:33;100102.19;;;26.86;69.30
7441;BME280;29616;51.950;8.572;2023-06-10T07:01:02;100096.19;;;27.21;70.80
7441;BME280;29616;51.950;8.572;2023-06-10T07:03:30;100095.78;;;27.34;68.20
7441;BME280;29616;51.950;8.572;2023-06-10T07:05:59;100101.75;;;27.86;66.71
7441;BME280;29616;51.950;8.572;2023-06-10T07:08:27;100103.63;;;28.02;65.87
7441;BME280;29616;51.950;8.572;2023-06-10T07:10:55;100094.31;;;28.65;64.44
7441;BME280;29616;51.950;8.572;2023-06-10T07:13:24;100098.94;;;28.81;62.23
7441;BME280;29616;51.950;8.572;2023-06-10T07:15:53;100102.19;;;28.63;61.61
7441;BME280;29616;51.950;8.572;2023-06-10T07:18:21;100105.84;;;28.63;61.78
7441;BME280;29616;51.950;8.572;2023-06-10T07:20:52;100109.47;;;28.27;62.08
7441;BME280;29616;51.950;8.572;2023-06-10T07:23:22;100104.56;;;28.44;61.30
7441;BME280;29616;51.950;8.572;2023-06-10T07:25:50;100120.72;;;29.06;61.93
7441;BME280;29616;51.950;8.572;2023-06-10T07:28:18;100109.47;;;29.06;60.10
7441;BME280;29616;51.950;8.572;2023-06-10T07:30:48;100117.06;;;29.05;58.31
7441;BME280;29616;51.950;8.572;2023-06-10T07:33:19;100126.75;;;29.24;57.81
7441;BME280;29616;51.950;8.572;2023-06-10T07:35:50;100115.13;;;29.11;58.40
7441;BME280;29616;51.950;8.572;2023-06-10T07:38:19;100122.91;;;28.94;59.05
7441;BME280;29616;51.950;8.572;2023-06-10T07:40:49;100119.34;;;29.08;59.39
7441;BME280;29616;51.950;8.572;2023-06-10T07:43:19;100128.13;;;28.75;59.62
7441;BME280;29616;51.950;8.572;2023-06-10T07:45:48;100104.94;;;28.58;60.92
7441;BME280;29616;51.950;8.572;2023-06-10T07:48:18;100127.59;;;28.46;61.55
7441;BME280;29616;51.950;8.572;2023-06-10T07:50:48;100116.66;;;28.81;62.45
7441;BME280;29616;51.950;8.572;2023-06-10T07:53:18;100121.03;;;28.67;62.55
7441;BME280;29616;51.950;8.572;2023-06-10T07:55:48;100122.44;;;28.65;64.92
7441;BME280;29616;51.950;8.572;2023-06-10T07:58:17;100132.59;;;28.71;64.41
7441;BME280;29616;51.950;8.572;2023-06-10T08:00:46;100144.34;;;29.05;64.42
7441;BME280;29616;51.950;8.572;2023-06-10T08:03:16;100133.84;;;29.32;63.46
7441;BME280;29616;51.950;8.572;2023-06-10T08:05:47;100145.16;;;28.95;64.41
7441;BME280;29616;51.950;8.572;2023-06-10T08:08:16;100141.09;;;29.23;63.72
7441;BME280;29616;51.950;8.572;2023-06-10T08:10:44;100145.47;;;29.56;63.53
7441;BME280;29616;51.950;8.572;2023-06-10T08:13:14;100140.78;;;29.91;63.30
7441;BME280;29616;51.950;8.572;2023-06-10T08:15:47;100145.19;;;29.62;63.03
7441;BME280;29616;51.950;8.572;2023-06-10T08:18:18;100143.50;;;29.56;62.45
7441;BME280;29616;51.950;8.572;2023-06-10T08:20:49;100139.56;;;29.62;63.16
7441;BME280;29616;51.950;8.572;2023-06-10T08:23:18;100149.47;;;29.70;63.25
7441;BME280;29616;51.950;8.572;2023-06-10T08:25:47;100149.75;;;29.73;64.24
7441;BME280;29616;51.950;8.572;2023-06-10T08:28:17;100148.50;;;30.41;62.39
7441;BME280;29616;51.950;8.572;2023-06-10T08:30:47;100137.22;;;30.67;61.42
7441;BME280;29616;51.950;8.572;2023-06-10T08:33:15;100147.94;;;30.54;61.98
7441;BME280;29616;51.950;8.572;2023-06-10T08:35:45;100149.63;;;30.76;59.69
7441;BME280;29616;51.950;8.572;2023-06-10T08:38:14;100137.47;;;30.15;60.00
7441;BME280;29616;51.950;8.572;2023-06-10T08:40:43;100142.03;;;30.46;58.10
7441;BME280;29616;51.950;8.572;2023-06-10T08:43:20;100139.72;;;30.83;57.92
7441;BME280;29616;51.950;8.572;2023-06-10T08:45:50;100143.44;;;30.74;57.22
7441;BME280;29616;51.950;8.572;2023-06-10T08:48:22;100150.22;;;30.57;58.24
7441;BME280;29616;51.950;8.572;2023-06-10T08:50:52;100147.38;;;30.98;59.62
7441;BME280;29616;51.950;8.572;2023-06-10T08:53:24;100142.50;;;31.18;58.79
7441;BME280;29616;51.950;8.572;2023-06-10T08:55:55;100157.75;;;30.87;58.82
7441;BME280;29616;51.950;8.572;2023-06-10T08:58:28;100147.38;;;30.98;57.57
7441;BME280;29616;51.950;8.572;2023-06-10T09:00:57;100147.59;;;31.06;57.66
7441;BME280;29616;51.950;8.572;2023-06-10T09:03:29;100145.94;;;30.80;56.34
7441;BME280;29616;51.950;8.572;2023-06-10T09:05:58;100127.34;;;30.94;57.01
7441;BME280;29616;51.950;8.572;2023-06-10T09:08:29;100140.47;;;31.34;57.90
7441;BME280;29616;51.950;8.572;2023-06-10T09:10:59;100150.59;;;31.99;57.52
7441;BME280;29616;51.950;8.572;2023-06-10T09:13:29;100146.13;;;32.37;56.08
7441;BME280;29616;51.950;8.572;2023-06-10T09:15:58;100150.38;;;32.34;57.01
7441;BME280;29616;51.950;8.572;2023-06-10T09:18:30;100143.97;;;32.24;55.32
7441;BME280;29616;51.950;8.572;2023-06-10T09:20:59;100140.56;;;31.78;56.05
7441;BME280;29616;51.950;8.572;2023-06-10T09:23:31;100139.25;;;32.14;56.05
7441;BME280;29616;51.950;8.572;2023-06-10T09:26:00;100154.44;;;32.23;55.99
7441;BME280;29616;51.950;8.572;2023-06-10T09:28:29;100147.50;;;32.39;57.65
7441;BME280;29616;51.950;8.572;2023-06-10T09:31:04;100136.25;;;32.73;55.82
7441;BME280;29616;51.950;8.572;2023-06-10T09:33:37;100144.16;;;32.37;51.98
7441;BME280;29616;51.950;8.572;2023-06-10T09:36:08;100144.84;;;32.19;54.30
7441;BME280;29616;51.950;8.572;2023-06-10T09:38:37;100134.94;;;32.22;54.04
7441;BME280;29616;51.950;8.572;2023-06-10T09:41:07;100139.88;;;32.40;54.81
7441;BME280;29616;51.950;8.572;2023-06-10T09:43:42;100133.16;;;32.36;53.59
7441;BME280;29616;51.950;8.572;2023-06-10T09:46:15;100142.19;;;32.72;54.51
7441;BME280;29616;51.950;8.572;2023-06-10T09:48:46;100130.59;;;32.73;49.98
7441;BME280;29616;51.950;8.572;2023-06-10T09:51:17;100136.47;;;32.09;50.81
7441;BME280;29616;51.950;8.572;2023-06-10T09:53:49;100133.72;;;31.89;52.76
7441;BME280;29616;51.950;8.572;2023-06-10T09:56:21;100135.78;;;32.22;52.74
7441;BME280;29616;51.950;8.572;2023-06-10T09:59:03;100138.81;;;32.36;52.28
7441;BME280;29616;51.950;8.572;2023-06-10T10:01:34;100138.38;;;32.53;52.63
7441;BME280;29616;51.950;8.572;2023-06-10T10:04:03;100135.38;;;32.73;55.76
7441;BME280;29616;51.950;8.572;2023-06-10T10:06:34;100144.56;;;32.88;53.56
7441;BME280;29616;51.950;8.572;2023-06-10T10:09:06;100141.38;;;32.95;52.09
7441;BME280;29616;51.950;8.572;2023-06-10T10:11:34;100141.56;;;33.04;53.00
7441;BME280;29616;51.950;8.572;2023-06-10T10:14:05;100129.50;;;32.93;53.35
7441;BME280;29616;51.950;8.572;2023-06-10T10:16:39;100128.56;;;32.74;52.42
7441;BME280;29616;51.950;8.572;2023-06-10T10:19:15;100112.25;;;32.66;53.48
7441;BME280;29616;51.950;8.572;2023-06-10T10:21:52;100131.84;;;33.15;55.00
7441;BME280;29616;51.950;8.572;2023-06-10T10:24:33;100127.66;;;33.78;56.01
7441;BME280;29616;51.950;8.572;2023-06-10T10:27:11;100127.50;;;33.46;53.07
7441;BME280;29616;51.950;8.572;2023-06-10T10:29:47;100128.44;;;32.89;54.76
7441;BME280;29616;51.950;8.572;2023-06-10T10:32:18;100126.25;;;32.47;56.35
7441;BME280;29616;51.950;8.572;2023-06-10T10:35:00;100127.91;;;32.82;56.23
7441;BME280;29616;51.950;8.572;2023-06-10T10:37:35;100134.72;;;32.52;54.65
7441;BME280;29616;51.950;8.572;2023-06-10T10:40:08;100127.53;;;32.65;52.72
7441;BME280;29616;51.950;8.572;2023-06-10T10:42:39;100132.25;;;32.74;53.30
7441;BME280;29616;51.950;8.572;2023-06-10T10:45:10;100138.75;;;32.75;53.39
7441;BME280;29616;51.950;8.572;2023-06-10T10:47:41;100134.03;;;32.94;53.36
7441;BME280;29616;51.950;8.572;2023-06-10T10:50:15;100128.25;;;33.57;50.34
7441;BME280;29616;51.950;8.572;2023-06-10T10:52:54;100125.22;;;33.24;51.35
7441;BME280;29616;51.950;8.572;2023-06-10T10:55:26;100129.44;;;32.98;52.16
7441;BME280;29616;51.950;8.572;2023-06-10T10:57:58;100132.22;;;33.03;52.90
7441;BME280;29616;51.950;8.572;2023-06-10T11:00:28;100122.22;;;33.63;51.29
7441;BME280;29616;51.950;8.572;2023-06-10T11:03:00;100126.38;;;33.89;49.62
7441;BME280;29616;51.950;8.572;2023-06-10T11:05:40;100121.69;;;33.80;50.28
7441;BME280;29616;51.950;8.572;2023-06-10T11:08:11;100120.88;;;33.55;50.81
7441;BME280;29616;51.950;8.572;2023-06-10T11:10:51;100128.28;;;33.28;51.19
7441;BME280;29616;51.950;8.572;2023-06-10T11:13:22;100125.50;;;33.46;50.89
7441;BME280;29616;51.950;8.572;2023-06-10T11:15:52;100121.28;;;33.68;51.11
7441;BME280;29616;51.950;8.572;2023-06-10T11:18:28;100125.16;;;33.53;50.50
7441;BME280;29616;51.950;8.572;2023-06-10T11:21:00;100123.34;;;33.62;51.67
7441;BME280;29616;51.950;8.572;2023-06-10T11:23:41;100115.09;;;33.84;51.61
7441;BME280;29616;51.950;8.572;2023-06-10T11:26:30;100109.97;;;33.86;50.53
7441;BME280;29616;51.950;8.572;2023-06-10T11:29:07;100122.47;;;33.67;50.62
7441;BME280;29616;51.950;8.572;2023-06-10T11:31:46;100113.19;;;33.61;50.43
7441;BME280;29616;51.950;8.572;2023-06-10T11:34:24;100111.66;;;33.69;51.22
7441;BME280;29616;51.950;8.572;2023-06-10T11:36:56;100114.91;;;33.57;50.54
7441;BME280;29616;51.950;8.572;2023-06-10T11:39:28;100104.78;;;33.27;51.28
7441;BME280;29616;51.950;8.572;2023-06-10T11:42:00;100116.09;;;33.56;51.33
7441;BME280;29616;51.950;8.572;2023-06-10T11:44:28;100089.53;;;33.47;52.60
7441;BME280;29616;51.950;8.572;2023-06-10T11:47:03;100102.63;;;33.85;52.01
7441;BME280;29616;51.950;8.572;2023-06-10T11:49:31;100109.06;;;34.09;50.06
7441;BME280;29616;51.950;8.572;2023-06-10T11:52:05;100105.13;;;34.43;50.04
7441;BME280;29616;51.950;8.572;2023-06-10T11:54:33;100107.13;;;34.42;49.50
7441;BME280;29616;51.950;8.572;2023-06-10T11:57:04;100112.34;;;34.35;48.94
7441;BME280;29616;51.950;8.572;2023-06-10T11:59:36;100101.41;;;34.10;50.52
7441;BME280;29616;51.950;8.572;2023-06-10T12:02:15;100105.41;;;34.41;49.63
7441;BME280;29616;51.950;8.572;2023-06-10T12:04:43;100092.69;;;33.88;50.88
7441;BME280;29616;51.950;8.572;2023-06-10T12:07:17;100106.66;;;33.61;51.44
7441;BME280;29616;51.950;8.572;2023-06-10T12:09:47;100089.53;;;33.47;51.10
7441;BME280;29616;51.950;8.572;2023-06-10T12:12:49;100090.56;;;33.75;49.68
7441;BME280;29616;51.950;8.572;2023-06-10T12:15:24;100092.53;;;34.17;49.07
7441;BME280;29616;51.950;8.572;2023-06-10T12:17:52;100095.66;;;34.15;50.63
7441;BME280;29616;51.950;8.572;2023-06-10T12:20:28;100081.88;;;33.47;49.96
7441;BME280;29616;51.950;8.572;2023-06-10T12:23:00;100098.59;;;33.25;49.45
7441;BME280;29616;51.950;8.572;2023-06-10T12:25:29;100091.00;;;33.44;49.72
7441;BME280;29616;51.950;8.572;2023-06-10T12:28:00;100078.44;;;33.50;50.37
7441;BME280;29616;51.950;8.572;2023-06-10T12:30:32;100092.53;;;33.55;49.23
7441;BME280;29616;51.950;8.572;2023-06-10T12:33:02;100099.44;;;33.26;48.95
7441;BME280;29616;51.950;8.572;2023-06-10T12:35:30;100071.53;;;33.14;50.57
7441;BME280;29616;51.950;8.572;2023-06-10T12:38:03;100089.34;;;33.81;50.60
7441;BME280;29616;51.950;8.572;2023-06-10T12:40:37;100088.13;;;33.87;48.92
7441;BME280;29616;51.950;8.572;2023-06-10T12:43:11;100086.22;;;33.64;47.99
7441;BME280;29616;51.950;8.572;2023-06-10T12:45:40;100083.47;;;33.53;49.89
7441;BME280;29616;51.950;8.572;2023-06-10T12:48:17;100091.66;;;33.79;48.64
7441;BME280;29616;51.950;8.572;2023-06-10T12:50:52;100077.41;;;33.84;50.20
7441;BME280;29616;51.950;8.572;2023-06-10T12:53:23;100071.44;;;34.04;47.55
7441;BME280;29616;51.950;8.572;2023-06-10T12:55:54;100097.50;;;34.25;47.60
7441;BME280;29616;51.950;8.572;2023-06-10T12:58:26;100087.69;;;33.98;46.97
7441;BME280;29616;51.950;8.572;2023-06-10T13:00:57;100089.00;;;33.69;47.83
7441;BME280;29616;51.950;8.572;2023-06-10T13:03:27;100075.09;;;33.86;48.54
7441;BME280;29616;51.950;8.572;2023-06-10T13:05:56;100074.91;;;34.20;48.05
7441;BME280;29616;51.950;8.572;2023-06-10T13:08:24;100075.38;;;34.40;46.38
7441;BME280;29616;51.950;8.572;2023-06-10T13:10:54;100063.22;;;34.21;46.88
7441;BME280;29616;51.950;8.572;2023-06-10T13:13:23;100079.56;;;34.61;46.20
7441;BME280;29616;51.950;8.572;2023-06-10T13:15:56;100092.72;;;33.83;45.31